Time;durP1;ratioP1;P1;durP2;ratioP2;P2;SDS_P1;SDS_P2;PMS_P1;PMS_P2;Temp;Humidity;BMP_temperature;BMP_pressure;BME280_temperature;BME280_humidity;BME280_pressure;Samples;Min_cycle;Max_cycle;Signal;HPM_P1;HPM_P2
2024/01/11 00:00:30;;;;;;;23.30;12.23;;;-3.00;99.90;;;;;;5071179;28;20537;-88
2024/01/11 00:02:56;;;;;;;22.70;12.30;;;-3.00;99.90;;;;;;5070607;28;20036;-88
2024/01/11 00:05:21;;;;;;;28.83;13.48;;;-3.00;99.90;;;;;;5071442;28;20505;-87
2024/01/11 00:07:48;;;;;;;23.83;10.45;;;-3.00;99.90;;;;;;5072026;28;20068;-88
2024/01/11 00:10:14;;;;;;;24.60;11.38;;;-3.00;99.90;;;;;;5071090;28;20094;-87
2024/01/11 00:12:39;;;;;;;23.52;10.98;;;-3.10;99.90;;;;;;5054999;28;20037;-88
2024/01/11 00:15:05;;;;;;;21.00;11.00;;;-3.10;99.90;;;;;;5071844;28;20119;-88
2024/01/11 00:17:31;;;;;;;17.33;8.20;;;-3.10;99.90;;;;;;5074965;28;20044;-87
2024/01/11 00:19:56;;;;;;;21.13;10.20;;;-3.10;99.90;;;;;;5079312;28;20036;-88
2024/01/11 00:22:22;;;;;;;24.80;11.57;;;-3.20;99.90;;;;;;5072745;28;20024;-88
2024/01/11 00:24:48;;;;;;;19.08;9.45;;;-3.20;99.90;;;;;;5071911;28;20495;-88
2024/01/11 00:27:13;;;;;;;18.85;9.65;;;-3.20;99.90;;;;;;5054211;28;20413;-88
2024/01/11 00:29:39;;;;;;;19.50;8.88;;;-3.20;99.90;;;;;;5068694;28;20037;-87
2024/01/11 00:32:05;;;;;;;18.65;7.93;;;-3.20;99.90;;;;;;5052761;28;20415;-88
2024/01/11 00:34:30;;;;;;;18.33;8.90;;;-3.20;99.90;;;;;;5071521;28;20033;-85
2024/01/11 00:36:56;;;;;;;22.05;11.50;;;-3.30;99.90;;;;;;5080071;28;20603;-87
2024/01/11 00:39:21;;;;;;;24.92;12.85;;;-3.30;99.90;;;;;;5055071;28;20037;-87
2024/01/11 00:41:47;;;;;;;22.05;12.10;;;-3.30;99.90;;;;;;5072555;28;20039;-88
2024/01/11 00:44:12;;;;;;;27.42;14.18;;;-3.30;99.90;;;;;;5071650;28;20067;-87
2024/01/11 00:46:39;;;;;;;24.83;12.15;;;-3.30;99.90;;;;;;5071212;28;20040;-88
2024/01/11 00:49:05;;;;;;;27.05;14.20;;;-3.30;99.90;;;;;;5070734;28;20187;-88
2024/01/11 00:51:30;;;;;;;23.30;13.13;;;-3.30;99.90;;;;;;5053409;28;20555;-86
2024/01/11 00:53:56;;;;;;;27.83;14.80;;;-3.30;99.90;;;;;;5070960;28;20055;-88
2024/01/11 00:56:22;;;;;;;24.13;12.13;;;-3.30;99.90;;;;;;5070078;28;20115;-88
2024/01/11 00:58:47;;;;;;;22.83;12.25;;;-3.30;99.90;;;;;;5053107;28;20476;-88
2024/01/11 01:01:13;;;;;;;22.73;10.40;;;-3.30;99.90;;;;;;5053580;28;20037;-88
2024/01/11 01:03:39;;;;;;;22.85;8.77;;;-3.30;99.90;;;;;;5069191;28;20032;-88
2024/01/11 01:06:05;;;;;;;24.25;12.25;;;-3.30;99.90;;;;;;5070044;28;20488;-87
2024/01/11 01:08:31;;;;;;;23.40;12.05;;;-3.30;99.90;;;;;;5068762;28;20507;-88
2024/01/11 01:10:57;;;;;;;26.20;13.35;;;-3.20;99.90;;;;;;5070153;28;20071;-88
2024/01/11 01:13:22;;;;;;;19.23;10.70;;;-3.20;99.90;;;;;;5051892;28;20037;-87
2024/01/11 01:15:48;;;;;;;19.98;9.52;;;-3.30;99.90;;;;;;5067845;28;20044;-88
2024/01/11 01:18:14;;;;;;;25.25;11.45;;;-3.30;99.90;;;;;;5069830;28;20090;-88
2024/01/11 01:20:40;;;;;;;20.30;10.30;;;-3.30;99.90;;;;;;5072981;28;20086;-88
2024/01/11 01:23:05;;;;;;;21.65;10.75;;;-3.30;99.90;;;;;;5068030;28;20555;-88
2024/01/11 01:25:32;;;;;;;25.10;12.25;;;-3.30;99.90;;;;;;5070905;28;20036;-87
2024/01/11 01:27:59;;;;;;;26.90;11.68;;;-3.30;99.90;;;;;;5051327;28;20047;-88
2024/01/11 01:30:24;;;;;;;19.35;10.68;;;-3.30;99.90;;;;;;5051619;28;20078;-87
2024/01/11 01:32:50;;;;;;;24.98;11.02;;;-3.30;99.90;;;;;;5068795;28;20036;-88
2024/01/11 01:35:16;;;;;;;21.52;10.80;;;-3.30;99.90;;;;;;5051623;28;20036;-87
2024/01/11 01:37:42;;;;;;;22.05;9.57;;;-3.40;99.90;;;;;;5051336;28;20064;-88
2024/01/11 01:40:08;;;;;;;20.05;9.80;;;-3.40;99.90;;;;;;5069176;28;20040;-88
2024/01/11 01:42:34;;;;;;;24.63;12.23;;;-3.40;99.90;;;;;;5067997;28;20091;-87
2024/01/11 01:45:00;;;;;;;23.27;10.27;;;-3.40;99.90;;;;;;5068441;28;20515;-88
2024/01/11 01:47:27;;;;;;;26.02;13.55;;;-3.40;99.90;;;;;;5068613;28;20051;-88
2024/01/11 01:49:54;;;;;;;23.15;10.65;;;-3.40;99.90;;;;;;5071899;28;20102;-88
2024/01/11 01:52:21;;;;;;;28.33;13.43;;;-3.40;99.90;;;;;;5068823;28;20040;-88
2024/01/11 01:54:48;;;;;;;29.20;15.23;;;-3.40;99.90;;;;;;5068728;28;20036;-88
2024/01/11 01:57:16;;;;;;;28.40;12.57;;;-3.50;99.90;;;;;;5067506;28;20044;-88
2024/01/11 01:59:43;;;;;;;27.45;11.98;;;-3.50;99.90;;;;;;5068858;28;20045;-88
2024/01/11 02:02:10;;;;;;;26.48;12.27;;;-3.50;99.90;;;;;;5054204;28;20029;-88
2024/01/11 02:04:36;;;;;;;19.02;10.85;;;-3.50;99.90;;;;;;5052861;28;20037;-88
2024/01/11 02:07:02;;;;;;;23.17;11.65;;;-3.50;99.90;;;;;;5050265;28;20043;-88
2024/01/11 02:09:28;;;;;;;25.02;11.68;;;-3.50;99.90;;;;;;5068524;28;20445;-89
2024/01/11 02:11:54;;;;;;;24.25;12.88;;;-3.50;99.90;;;;;;5067970;28;20040;-88
2024/01/11 02:14:20;;;;;;;30.88;13.82;;;-3.50;99.90;;;;;;5069283;28;20044;-88
2024/01/11 02:16:46;;;;;;;24.15;11.20;;;-3.50;99.90;;;;;;5054055;28;20046;-89
2024/01/11 02:19:18;;;;;;;28.63;13.85;;;-3.50;99.90;;;;;;5072690;28;20036;-88
2024/01/11 02:21:46;;;;;;;29.63;14.23;;;-3.50;99.90;;;;;;5068803;28;20032;-88
2024/01/11 02:24:11;;;;;;;29.83;13.88;;;-3.50;99.90;;;;;;5067862;28;20112;-88
2024/01/11 02:26:57;;;;;;;27.35;13.70;;;-3.50;99.90;;;;;;5066826;28;20123;-88
2024/01/11 02:29:22;;;;;;;27.45;14.52;;;-3.60;99.90;;;;;;5067807;28;20048;-89
2024/01/11 02:31:48;;;;;;;22.75;12.30;;;-3.60;99.90;;;;;;5068837;28;20044;-88
2024/01/11 02:34:13;;;;;;;24.92;12.02;;;-3.50;99.90;;;;;;5067682;28;20032;-88
2024/01/11 02:36:39;;;;;;;29.60;13.48;;;-3.60;99.90;;;;;;5067015;28;20033;-88
2024/01/11 02:39:06;;;;;;;30.27;15.30;;;-3.60;99.90;;;;;;5052488;28;20024;-88
2024/01/11 02:41:32;;;;;;;27.13;12.70;;;-3.60;99.90;;;;;;5053781;28;20041;-88
2024/01/11 02:43:58;;;;;;;26.13;12.57;;;-3.60;99.90;;;;;;5081076;28;20068;-88
2024/01/11 02:46:24;;;;;;;27.13;13.75;;;-3.60;99.90;;;;;;5071626;28;20032;-88
2024/01/11 02:48:50;;;;;;;25.40;14.23;;;-3.70;99.90;;;;;;5069689;28;20395;-87
2024/01/11 02:51:15;;;;;;;28.55;13.82;;;-3.70;99.90;;;;;;5051177;28;20040;-88
2024/01/11 02:53:41;;;;;;;28.52;12.48;;;-3.70;99.90;;;;;;5050282;28;20040;-88
2024/01/11 02:56:06;;;;;;;28.98;13.32;;;-3.70;99.90;;;;;;5066702;28;20388;-87
2024/01/11 02:58:32;;;;;;;28.10;13.63;;;-3.80;99.90;;;;;;5053006;28;20032;-88
2024/01/11 03:00:57;;;;;;;29.40;16.52;;;-3.80;99.90;;;;;;5053366;28;20035;-88
2024/01/11 03:03:23;;;;;;;27.05;14.93;;;-3.80;99.90;;;;;;5051259;28;20044;-87
2024/01/11 03:05:48;;;;;;;28.58;13.45;;;-3.80;99.90;;;;;;5051241;28;20024;-87
2024/01/11 03:08:14;;;;;;;25.33;13.27;;;-3.90;99.90;;;;;;5066323;28;20036;-87
2024/01/11 03:10:40;;;;;;;25.50;14.55;;;-3.90;99.90;;;;;;5050166;28;20032;-87
2024/01/11 03:13:06;;;;;;;24.85;12.55;;;-3.90;99.90;;;;;;5069074;28;20082;-88
2024/01/11 03:15:32;;;;;;;29.13;14.55;;;-3.90;99.90;;;;;;5070294;28;20043;-87
2024/01/11 03:17:58;;;;;;;29.00;14.27;;;-3.90;99.90;;;;;;5065941;28;20045;-88
2024/01/11 03:20:24;;;;;;;30.27;14.40;;;-3.90;99.90;;;;;;5069131;28;20037;-87
2024/01/11 03:22:53;;;;;;;23.38;12.52;;;-4.00;99.90;;;;;;5067499;28;20107;-87
2024/01/11 03:25:19;;;;;;;27.58;14.52;;;-4.00;99.90;;;;;;5050369;28;20055;-87
2024/01/11 03:27:45;;;;;;;28.65;13.00;;;-4.00;99.90;;;;;;5068952;28;20044;-87
2024/01/11 03:30:11;;;;;;;31.65;17.30;;;-4.00;99.90;;;;;;5050711;28;20106;-87
2024/01/11 03:32:38;;;;;;;33.25;16.77;;;-4.00;99.90;;;;;;5066850;28;20615;-87
2024/01/11 03:35:07;;;;;;;23.02;11.70;;;-4.00;99.90;;;;;;5067272;28;20029;-88
2024/01/11 03:37:33;;;;;;;25.35;11.98;;;-4.00;99.90;;;;;;5067057;28;20672;-87
2024/01/11 03:40:00;;;;;;;22.90;9.65;;;-4.00;99.90;;;;;;5068358;28;20035;-88
2024/01/11 03:42:25;;;;;;;23.92;9.63;;;-4.00;99.90;;;;;;5068727;28;20064;-88
2024/01/11 03:44:51;;;;;;;30.73;13.38;;;-4.00;99.90;;;;;;5070707;28;20064;-87
2024/01/11 03:47:16;;;;;;;26.13;12.77;;;-4.00;99.90;;;;;;5067588;28;20844;-87
2024/01/11 03:49:42;;;;;;;26.67;11.93;;;-4.00;99.90;;;;;;5067441;28;20047;-87
2024/01/11 03:52:07;;;;;;;26.13;12.05;;;-4.00;99.90;;;;;;5066724;28;20043;-88
2024/01/11 03:54:33;;;;;;;21.48;11.00;;;-4.10;99.90;;;;;;5067387;28;20086;-87
2024/01/11 03:56:59;;;;;;;22.55;10.82;;;-4.10;99.90;;;;;;5050662;28;20032;-88
2024/01/11 03:59:24;;;;;;;25.63;13.02;;;-4.00;99.90;;;;;;5052722;28;20044;-88
2024/01/11 04:01:51;;;;;;;29.85;14.27;;;-4.00;99.90;;;;;;5066911;28;20404;-87
2024/01/11 04:04:16;;;;;;;23.23;13.30;;;-4.10;99.90;;;;;;5053405;28;20039;-87
2024/01/11 04:06:42;;;;;;;24.17;12.68;;;-4.10;99.90;;;;;;5070256;28;20040;-87
2024/01/11 04:09:07;;;;;;;22.33;11.43;;;-4.10;99.90;;;;;;5053324;28;20032;-87
2024/01/11 04:11:33;;;;;;;23.60;12.10;;;-4.10;99.90;;;;;;5072403;28;20120;-87
2024/01/11 04:13:58;;;;;;;33.75;13.93;;;-4.10;99.90;;;;;;5073256;28;20040;-88
2024/01/11 04:16:24;;;;;;;26.38;13.73;;;-4.10;99.90;;;;;;5052983;28;20043;-87
2024/01/11 04:18:49;;;;;;;31.52;14.55;;;-4.10;99.90;;;;;;5072671;28;20473;-87
2024/01/11 04:21:23;;;;;;;29.52;13.20;;;-4.10;99.90;;;;;;5053749;28;20028;-88
2024/01/11 04:23:48;;;;;;;25.83;13.02;;;-4.10;99.90;;;;;;5053581;28;20246;-88
2024/01/11 04:26:15;;;;;;;28.23;13.00;;;-4.10;99.90;;;;;;5071772;28;20127;-88
2024/01/11 04:28:40;;;;;;;28.40;13.55;;;-4.10;99.90;;;;;;5072345;28;20029;-88
2024/01/11 04:31:08;;;;;;;27.58;12.32;;;-4.20;99.90;;;;;;5052944;28;20032;-88
2024/01/11 04:33:34;;;;;;;24.10;12.63;;;-4.20;99.90;;;;;;5069243;28;20380;-88
2024/01/11 04:35:59;;;;;;;24.73;14.05;;;-4.20;99.90;;;;;;5069958;28;20028;-88
2024/01/11 04:38:25;;;;;;;28.48;13.32;;;-4.20;99.90;;;;;;5070125;28;20095;-89
2024/01/11 04:40:50;;;;;;;23.48;11.65;;;-4.30;99.90;;;;;;5071906;28;20039;-89
2024/01/11 04:43:16;;;;;;;22.63;10.85;;;-4.30;99.90;;;;;;5056229;28;20553;-88
2024/01/11 04:45:41;;;;;;;20.15;8.02;;;-4.30;99.90;;;;;;5070285;28;20040;-88
2024/01/11 04:48:07;;;;;;;24.15;10.73;;;-4.30;99.90;;;;;;5069821;28;20079;-88
2024/01/11 04:50:32;;;;;;;20.77;8.35;;;-4.30;99.90;;;;;;5053347;28;20032;-88
2024/01/11 04:52:58;;;;;;;19.27;8.70;;;-4.30;99.90;;;;;;5071079;28;20037;-88
2024/01/11 04:55:23;;;;;;;21.58;10.35;;;-4.30;99.90;;;;;;5052675;28;20040;-89
2024/01/11 04:57:49;;;;;;;23.27;13.27;;;-4.30;99.90;;;;;;5070731;28;20547;-88
2024/01/11 05:00:15;;;;;;;21.65;11.35;;;-4.30;99.90;;;;;;5070239;28;20048;-89
2024/01/11 05:02:41;;;;;;;29.13;14.77;;;-4.30;99.90;;;;;;5071224;28;20052;-88
2024/01/11 05:05:06;;;;;;;22.02;12.27;;;-4.30;99.90;;;;;;5078478;28;20124;-88
2024/01/11 05:07:32;;;;;;;26.42;13.43;;;-4.40;99.90;;;;;;5069814;28;20040;-88
2024/01/11 05:09:57;;;;;;;34.63;17.30;;;-4.30;99.90;;;;;;5070126;28;20033;-88
2024/01/11 05:12:23;;;;;;;34.75;15.63;;;-4.30;99.90;;;;;;5055517;28;20399;-88
2024/01/11 05:14:48;;;;;;;32.67;11.23;;;-4.40;99.90;;;;;;5050158;28;20036;-88
2024/01/11 05:17:14;;;;;;;30.35;13.60;;;-4.30;99.90;;;;;;5068678;28;20059;-88
2024/01/11 05:19:40;;;;;;;30.80;15.63;;;-4.30;99.90;;;;;;5068250;28;20037;-88
2024/01/11 05:22:05;;;;;;;25.13;12.20;;;-4.30;99.90;;;;;;5052634;28;20150;-87
2024/01/11 05:24:31;;;;;;;34.05;15.02;;;-4.30;99.90;;;;;;5053893;28;20029;-88
2024/01/11 05:26:57;;;;;;;25.23;12.70;;;-4.30;99.90;;;;;;5067755;28;20036;-87
2024/01/11 05:29:23;;;;;;;36.70;16.77;;;-4.30;99.90;;;;;;5051759;28;20032;-88
2024/01/11 05:31:49;;;;;;;33.95;15.15;;;-4.30;99.90;;;;;;5069588;28;20396;-87
2024/01/11 05:34:14;;;;;;;28.75;13.35;;;-4.30;99.90;;;;;;5051901;28;20068;-88
2024/01/11 05:36:40;;;;;;;30.60;14.90;;;-4.30;99.90;;;;;;5052951;28;20045;-88
2024/01/11 05:39:06;;;;;;;32.40;14.13;;;-4.30;99.90;;;;;;5070500;28;20043;-88
2024/01/11 05:41:31;;;;;;;27.15;12.98;;;-4.30;99.90;;;;;;5067430;28;20041;-88
2024/01/11 05:43:57;;;;;;;29.98;15.95;;;-4.30;99.90;;;;;;5051108;28;20041;-88
2024/01/11 05:46:22;;;;;;;31.88;16.08;;;-4.30;99.90;;;;;;5068722;28;20453;-88
2024/01/11 05:48:48;;;;;;;36.30;16.20;;;-4.30;99.90;;;;;;5067162;28;20033;-88
2024/01/11 05:51:13;;;;;;;34.97;15.98;;;-4.30;99.90;;;;;;5069375;28;20036;-88
2024/01/11 05:53:39;;;;;;;29.75;13.95;;;-4.30;99.90;;;;;;5071979;28;20044;-89
2024/01/11 05:56:09;;;;;;;36.47;16.27;;;-4.30;99.90;;;;;;5053539;28;20082;-88
2024/01/11 05:58:36;;;;;;;29.92;13.20;;;-4.30;99.90;;;;;;5069230;28;20087;-88
2024/01/11 06:01:02;;;;;;;28.95;12.68;;;-4.30;99.90;;;;;;5068274;28;20098;-88
2024/01/11 06:03:29;;;;;;;36.92;14.93;;;-4.30;99.90;;;;;;5063685;28;20036;-88
2024/01/11 06:05:55;;;;;;;30.85;13.57;;;-4.30;99.90;;;;;;5067347;28;20036;-88
2024/01/11 06:08:20;;;;;;;24.60;12.45;;;-4.30;99.90;;;;;;5047387;28;20086;-88
2024/01/11 06:10:46;;;;;;;30.60;13.63;;;-4.20;99.90;;;;;;5071485;28;20111;-88
2024/01/11 06:13:12;;;;;;;32.58;15.63;;;-4.20;99.90;;;;;;5050575;28;20467;-88
2024/01/11 06:15:37;;;;;;;29.08;14.52;;;-4.10;99.90;;;;;;5066625;28;20033;-87
2024/01/11 06:18:04;;;;;;;35.58;15.73;;;-4.10;99.90;;;;;;5066678;28;20047;-88
2024/01/11 06:20:30;;;;;;;28.98;13.82;;;-4.00;99.90;;;;;;5049033;28;20033;-87
2024/01/11 06:22:55;;;;;;;33.58;14.98;;;-3.90;99.90;;;;;;5066015;28;20086;-87
2024/01/11 06:25:21;;;;;;;36.10;15.05;;;-3.90;99.90;;;;;;5068335;28;20028;-86
2024/01/11 06:27:47;;;;;;;29.35;14.02;;;-3.80;99.90;;;;;;5048861;28;20461;-88
2024/01/11 06:30:13;;;;;;;30.48;14.68;;;-3.70;99.90;;;;;;5066473;28;20041;-88
2024/01/11 06:32:39;;;;;;;31.77;15.20;;;-3.60;99.90;;;;;;5066158;28;20040;-87
2024/01/11 06:35:05;;;;;;;30.67;14.88;;;-3.60;99.90;;;;;;5049955;28;20051;-88
2024/01/11 06:37:30;;;;;;;33.30;14.82;;;-3.50;99.90;;;;;;5050729;28;20036;-89
2024/01/11 06:39:56;;;;;;;29.95;13.75;;;-3.50;99.90;;;;;;5067718;28;20506;-88
2024/01/11 06:42:22;;;;;;;31.20;16.05;;;-3.50;99.90;;;;;;5049998;28;20051;-87
2024/01/11 06:44:48;;;;;;;29.80;13.57;;;-3.40;99.90;;;;;;5065948;28;20043;-88
2024/01/11 06:47:14;;;;;;;31.60;15.77;;;-3.40;99.90;;;;;;5048880;28;20028;-87
2024/01/11 06:49:41;;;;;;;39.67;17.10;;;-3.30;99.90;;;;;;5050865;28;20086;-88
2024/01/11 06:52:06;;;;;;;27.65;14.00;;;-3.20;99.90;;;;;;5050736;28;20036;-87
2024/01/11 06:54:32;;;;;;;26.38;11.32;;;-3.20;99.90;;;;;;5068873;28;20073;-87
2024/01/11 06:56:58;;;;;;;34.05;15.50;;;-3.20;99.90;;;;;;5070423;28;20486;-89
2024/01/11 06:59:24;;;;;;;28.15;13.63;;;-3.20;99.90;;;;;;5069355;28;20108;-87
2024/01/11 07:01:49;;;;;;;31.55;15.23;;;-3.10;99.90;;;;;;5051905;28;20032;-88
2024/01/11 07:04:15;;;;;;;30.02;12.95;;;-3.10;99.90;;;;;;5069138;28;20074;-87
2024/01/11 07:06:41;;;;;;;28.67;11.90;;;-3.10;99.90;;;;;;5070092;28;20613;-87
2024/01/11 07:09:06;;;;;;;31.00;14.10;;;-3.00;99.90;;;;;;5052829;28;20142;-88
2024/01/11 07:11:32;;;;;;;22.77;11.77;;;-3.00;99.90;;;;;;5066920;28;20048;-88
2024/01/11 07:13:58;;;;;;;25.63;11.85;;;-3.00;99.90;;;;;;5048783;28;20065;-87
2024/01/11 07:16:24;;;;;;;27.95;12.38;;;-3.00;99.90;;;;;;5064726;28;20032;-88
2024/01/11 07:18:49;;;;;;;32.80;15.48;;;-2.90;99.90;;;;;;5066131;28;20047;-88
2024/01/11 07:21:29;;;;;;;36.13;16.27;;;-2.90;99.90;;;;;;5067798;28;20059;-87
2024/01/11 07:23:56;;;;;;;28.30;12.88;;;-2.80;99.90;;;;;;5049646;28;20158;-88
2024/01/11 07:26:23;;;;;;;31.25;13.85;;;-2.80;99.90;;;;;;5069643;28;20088;-87
2024/01/11 07:28:49;;;;;;;35.33;14.55;;;-2.80;99.90;;;;;;5072225;28;20051;-88
2024/01/11 07:31:15;;;;;;;33.40;15.98;;;-2.80;99.90;;;;;;5048154;28;20028;-88
2024/01/11 07:33:40;;;;;;;35.65;15.52;;;-2.70;99.90;;;;;;5064597;28;20384;-87
2024/01/11 07:36:06;;;;;;;29.58;11.57;;;-2.70;99.90;;;;;;5064085;28;20028;-87
2024/01/11 07:38:32;;;;;;;33.67;15.45;;;-2.70;99.90;;;;;;5064053;28;20036;-88
2024/01/11 07:40:58;;;;;;;37.25;16.42;;;-2.60;99.90;;;;;;5048055;28;20086;-88
2024/01/11 07:43:23;;;;;;;30.25;14.85;;;-2.60;99.90;;;;;;5050185;28;20124;-88
2024/01/11 07:45:50;;;;;;;31.52;14.27;;;-2.60;99.90;;;;;;5066033;28;20048;-88
2024/01/11 07:48:15;;;;;;;36.42;15.93;;;-2.50;99.90;;;;;;5051960;28;20449;-88
2024/01/11 07:50:41;;;;;;;38.30;16.92;;;-2.40;99.90;;;;;;5071298;28;20149;-88
2024/01/11 07:53:07;;;;;;;40.80;18.30;;;-2.40;99.90;;;;;;5050693;28;20169;-88
2024/01/11 07:55:32;;;;;;;36.85;15.35;;;-2.40;99.90;;;;;;5050825;28;20109;-88
2024/01/11 07:57:58;;;;;;;38.25;15.32;;;-2.30;99.90;;;;;;5053021;28;20025;-87
2024/01/11 08:00:23;;;;;;;34.67;14.65;;;-2.30;99.90;;;;;;5068347;28;20048;-87
2024/01/11 08:02:49;;;;;;;31.27;13.48;;;-2.30;99.90;;;;;;5071284;28;20491;-87
2024/01/11 08:05:15;;;;;;;33.05;13.30;;;-2.30;99.90;;;;;;5048231;28;20032;-88
2024/01/11 08:07:42;;;;;;;38.70;14.85;;;-2.20;99.90;;;;;;5052519;28;20517;-88
2024/01/11 08:10:09;;;;;;;30.20;14.30;;;-2.20;99.90;;;;;;5052252;28;20124;-88
2024/01/11 08:12:35;;;;;;;29.55;13.60;;;-2.20;99.90;;;;;;5070004;28;20033;-89
2024/01/11 08:15:00;;;;;;;30.17;15.77;;;-2.10;99.90;;;;;;5066716;28;20044;-89
2024/01/11 08:17:26;;;;;;;37.03;15.00;;;-2.10;99.90;;;;;;5069025;28;20036;-88
2024/01/11 08:19:52;;;;;;;32.05;16.00;;;-2.10;99.90;;;;;;5071035;28;20032;-88
2024/01/11 08:22:17;;;;;;;33.22;12.73;;;-2.10;99.90;;;;;;5068116;28;20541;-88
2024/01/11 08:24:43;;;;;;;40.92;17.38;;;-2.00;99.90;;;;;;5069548;28;20482;-88
2024/01/11 08:27:09;;;;;;;42.42;17.38;;;-2.00;99.90;;;;;;5052208;28;20047;-89
2024/01/11 08:29:34;;;;;;;40.83;17.27;;;-2.00;99.90;;;;;;5068615;28;20546;-88
2024/01/11 08:32:04;;;;;;;42.28;16.80;;;-1.90;99.90;;;;;;5071863;28;20036;-89
2024/01/11 08:34:30;;;;;;;47.38;20.05;;;-1.90;99.90;;;;;;5072552;28;20077;-88
2024/01/11 08:36:55;;;;;;;53.13;20.75;;;-1.90;99.90;;;;;;5068481;28;20561;-88
2024/01/11 08:39:21;;;;;;;37.60;15.75;;;-1.80;99.90;;;;;;5051687;28;20040;-87
2024/01/11 08:41:47;;;;;;;37.95;16.48;;;-1.80;99.90;;;;;;5051650;28;20040;-88
2024/01/11 08:44:13;;;;;;;39.53;15.60;;;-1.80;99.90;;;;;;5068069;28;20039;-87
2024/01/11 08:46:39;;;;;;;33.40;13.55;;;-1.70;99.90;;;;;;5068343;28;20044;-88
2024/01/11 08:49:05;;;;;;;37.47;16.67;;;-1.70;99.90;;;;;;5052866;28;20123;-88
2024/01/11 08:51:34;;;;;;;38.25;18.05;;;-1.70;99.90;;;;;;5070076;28;20186;-88
2024/01/11 08:54:00;;;;;;;32.97;15.18;;;-1.60;99.90;;;;;;5068895;28;20450;-88
2024/01/11 08:56:26;;;;;;;33.10;14.95;;;-1.60;99.90;;;;;;5068979;28;20028;-88
2024/01/11 08:58:51;;;;;;;27.45;13.95;;;-1.50;99.90;;;;;;5068962;28;20296;-88
2024/01/11 09:01:18;;;;;;;25.13;10.55;;;-1.50;99.90;;;;;;5051771;28;20033;-88
2024/01/11 09:03:43;;;;;;;25.42;12.88;;;-1.50;99.90;;;;;;5072558;28;20702;-88
2024/01/11 09:06:10;;;;;;;34.58;15.52;;;-1.40;99.90;;;;;;5068420;28;20119;-88
2024/01/11 09:08:35;;;;;;;43.75;18.10;;;-1.40;99.90;;;;;;5051511;28;20044;-88
2024/01/11 09:11:01;;;;;;;32.83;15.10;;;-1.40;99.90;;;;;;5067940;28;20115;-87
2024/01/11 09:13:27;;;;;;;39.28;15.80;;;-1.30;99.90;;;;;;5068142;28;20050;-88
2024/01/11 09:15:54;;;;;;;35.50;16.48;;;-1.30;99.90;;;;;;5054091;28;20042;-87
2024/01/11 09:18:20;;;;;;;34.78;14.32;;;-1.30;99.90;;;;;;5071268;28;20043;-88
2024/01/11 09:20:45;;;;;;;29.83;13.80;;;-1.20;99.90;;;;;;5068814;28;20044;-88
2024/01/11 09:23:11;;;;;;;27.80;12.75;;;-1.20;99.90;;;;;;5051108;28;20043;-87
2024/01/11 09:25:37;;;;;;;39.58;16.95;;;-1.20;99.90;;;;;;5068063;28;20402;-88
2024/01/11 09:28:03;;;;;;;37.15;15.90;;;-1.10;99.90;;;;;;5069171;28;20047;-88
2024/01/11 09:30:29;;;;;;;34.65;14.15;;;-1.10;99.90;;;;;;5052338;28;20028;-87
2024/01/11 09:32:55;;;;;;;32.65;12.18;;;-1.10;99.90;;;;;;5066801;28;20101;-87
2024/01/11 09:35:22;;;;;;;23.15;12.77;;;-1.00;99.90;;;;;;5067610;28;20129;-87
2024/01/11 09:37:47;;;;;;;42.95;16.02;;;-1.00;99.90;;;;;;5052322;28;20119;-88
2024/01/11 09:40:13;;;;;;;42.10;17.08;;;-1.00;99.90;;;;;;5068876;28;20115;-88
2024/01/11 09:42:39;;;;;;;40.05;17.35;;;-0.90;99.90;;;;;;5049912;28;20042;-88
2024/01/11 09:45:09;;;;;;;32.35;15.60;;;-0.90;99.90;;;;;;5052074;28;20083;-88
2024/01/11 09:47:36;;;;;;;36.10;15.80;;;-0.90;99.90;;;;;;5069317;28;20036;-87
2024/01/11 09:50:03;;;;;;;27.95;13.15;;;-0.80;99.90;;;;;;5052760;28;20064;-88
2024/01/11 09:52:31;;;;;;;25.40;9.77;;;-0.80;99.90;;;;;;5070474;28;20040;-88
2024/01/11 09:54:58;;;;;;;23.58;8.90;;;-0.70;99.90;;;;;;5050300;28;20033;-88
2024/01/11 09:57:32;;;;;;;23.67;10.13;;;-0.70;99.90;;;;;;5050948;28;20048;-87
2024/01/11 09:59:58;;;;;;;24.13;10.23;;;-0.70;99.90;;;;;;5069578;28;20094;-89
2024/01/11 10:02:26;;;;;;;34.35;15.18;;;-0.60;99.90;;;;;;5052024;28;20040;-89
2024/01/11 10:04:52;;;;;;;33.67;15.70;;;-0.60;99.90;;;;;;5051066;28;20032;-89
2024/01/11 10:07:23;;;;;;;34.60;14.55;;;-0.50;99.90;;;;;;5067753;28;20044;-89
2024/01/11 10:09:49;;;;;;;33.63;15.85;;;-0.50;99.90;;;;;;5050758;28;20036;-89
2024/01/11 10:12:17;;;;;;;34.78;15.85;;;-0.50;99.90;;;;;;5067899;28;20085;-89
2024/01/11 10:14:42;;;;;;;30.42;14.18;;;-0.40;99.90;;;;;;5070403;28;20050;-88
2024/01/11 10:17:08;;;;;;;25.17;12.50;;;-0.30;99.90;;;;;;5067348;28;20040;-88
2024/01/11 10:19:34;;;;;;;28.27;11.80;;;-0.30;99.90;;;;;;5051837;28;20036;-89
2024/01/11 10:21:59;;;;;;;24.85;11.40;;;-0.20;99.90;;;;;;5066523;28;20476;-88
2024/01/11 10:24:28;;;;;;;25.70;12.52;;;-0.20;99.90;;;;;;5066941;28;20043;-89
2024/01/11 10:26:58;;;;;;;25.13;10.82;;;-0.10;99.90;;;;;;5066714;28;20043;-89
2024/01/11 10:29:31;;;;;;;25.63;12.25;;;-0.10;99.90;;;;;;5051793;28;20109;-89
2024/01/11 10:31:57;;;;;;;22.88;10.68;;;-0.10;99.90;;;;;;5068084;28;20035;-88
2024/01/11 10:34:25;;;;;;;27.30;11.45;;;0.00;99.90;;;;;;5066439;28;20028;-88
2024/01/11 10:36:52;;;;;;;31.00;12.95;;;0.10;99.90;;;;;;5066797;28;20429;-89
2024/01/11 10:39:20;;;;;;;25.58;11.48;;;0.10;99.90;;;;;;5066397;28;20036;-89
2024/01/11 10:41:50;;;;;;;31.00;12.50;;;0.10;99.90;;;;;;5050726;28;20459;-89
2024/01/11 10:44:20;;;;;;;39.20;14.75;;;0.20;99.90;;;;;;5066985;28;20029;-90
2024/01/11 10:46:46;;;;;;;31.77;13.82;;;0.20;99.90;;;;;;5049975;28;20031;-90
2024/01/11 10:49:17;;;;;;;37.15;16.10;;;0.30;99.90;;;;;;5046982;28;20032;-89
2024/01/11 10:52:00;;;;;;;31.65;15.82;;;0.30;99.90;;;;;;5061458;28;20036;-89
2024/01/11 10:54:27;;;;;;;33.47;14.45;;;0.40;99.90;;;;;;5045861;28;20115;-89
2024/01/11 10:56:54;;;;;;;31.05;13.13;;;0.40;99.90;;;;;;5063951;28;20039;-88
2024/01/11 10:59:25;;;;;;;29.83;12.68;;;0.50;99.90;;;;;;5047626;28;20050;-89
2024/01/11 11:01:57;;;;;;;26.60;11.05;;;0.50;99.90;;;;;;5045323;28;20072;-88
2024/01/11 11:04:24;;;;;;;24.00;9.50;;;0.50;99.90;;;;;;5044976;28;20090;-89
2024/01/11 11:06:51;;;;;;;26.00;10.80;;;0.60;99.90;;;;;;5062772;28;20033;-89
2024/01/11 11:09:17;;;;;;;30.88;13.98;;;0.60;99.90;;;;;;5047688;28;20094;-89
2024/01/11 11:11:44;;;;;;;28.38;12.38;;;0.60;99.90;;;;;;5049102;28;20044;-89
2024/01/11 11:14:13;;;;;;;35.88;14.18;;;0.60;99.90;;;;;;5046827;28;20494;-89
2024/01/11 11:16:39;;;;;;;27.63;13.30;;;0.60;99.90;;;;;;5061080;28;20028;-90
2024/01/11 11:19:06;;;;;;;23.00;9.45;;;0.70;99.90;;;;;;5063331;28;20573;-90
2024/01/11 11:21:32;;;;;;;26.08;13.15;;;0.70;99.90;;;;;;5047382;28;20061;-90
2024/01/11 11:23:58;;;;;;;24.70;10.52;;;0.70;99.90;;;;;;5047053;28;20075;-89
2024/01/11 11:26:26;;;;;;;27.45;11.27;;;0.70;99.90;;;;;;5046028;28;20059;-90
2024/01/11 11:28:51;;;;;;;24.00;10.05;;;0.70;99.90;;;;;;5046747;28;20072;-90
2024/01/11 11:31:43;;;;;;;25.42;10.23;;;0.70;99.90;;;;;;5046603;28;20093;-89
2024/01/11 11:34:12;;;;;;;28.33;10.27;;;0.80;99.90;;;;;;5062718;28;20514;-89
2024/01/11 11:36:41;;;;;;;19.42;8.98;;;0.80;99.90;;;;;;5063293;28;20032;-89
2024/01/11 11:39:11;;;;;;;21.48;9.52;;;0.80;99.90;;;;;;5049901;28;20041;-91
2024/01/11 11:41:38;;;;;;;20.08;9.38;;;0.90;99.90;;;;;;5066315;28;20077;-91
2024/01/11 11:44:05;;;;;;;19.73;8.15;;;0.90;99.90;;;;;;5063456;28;20041;-91
2024/01/11 11:46:33;;;;;;;28.20;12.02;;;0.90;99.90;;;;;;5065980;28;20538;-91
2024/01/11 11:48:59;;;;;;;25.67;10.93;;;0.90;99.90;;;;;;5064386;28;20052;-90
2024/01/11 11:51:27;;;;;;;22.73;10.82;;;0.90;99.90;;;;;;5049306;28;20040;-91
2024/01/11 11:53:53;;;;;;;21.33;9.43;;;1.00;99.90;;;;;;5067273;28;20083;-90
2024/01/11 11:56:21;;;;;;;19.83;9.00;;;1.00;99.90;;;;;;5069520;28;20060;-89
2024/01/11 11:58:47;;;;;;;22.05;9.93;;;1.00;99.90;;;;;;5050966;28;20040;-90
2024/01/11 12:01:17;;;;;;;25.17;12.23;;;1.00;99.90;;;;;;5066933;28;20052;-90
2024/01/11 12:03:48;;;;;;;31.52;10.93;;;1.10;99.90;;;;;;5067608;28;20099;-91
2024/01/11 12:06:16;;;;;;;22.60;11.13;;;1.10;99.90;;;;;;5067416;28;20059;-90
2024/01/11 12:08:43;;;;;;;27.23;12.02;;;1.10;99.90;;;;;;5053176;28;20218;-91
2024/01/11 12:11:09;;;;;;;28.48;11.77;;;1.10;99.90;;;;;;5068854;28;20036;-92
2024/01/11 12:13:35;;;;;;;22.40;10.40;;;1.10;99.90;;;;;;5051047;28;20036;-90
2024/01/11 12:16:01;;;;;;;29.40;13.45;;;1.20;99.90;;;;;;5067886;28;20167;-90
2024/01/11 12:18:27;;;;;;;24.42;9.95;;;1.30;99.90;;;;;;5067591;28;20074;-90
2024/01/11 12:20:53;;;;;;;28.40;12.13;;;1.30;99.90;;;;;;5067152;28;20041;-91
2024/01/11 12:23:19;;;;;;;28.08;12.15;;;1.30;99.90;;;;;;5052515;28;20483;-90